Aviation Digital Data Service (ADDS)

Output produced by METARs form (1632 UTC 16 June 2019)
found at http://www.aviationweather.gov/metar/data/
 
TJBQ 161138Z 1612/1712 11007KT P6SM FEW025 BKN060 
     FM161400 09014G19KT P6SM SCT030 SCT080 
     FM161700 08018G24KT P6SM VCTS SCT020 BKN030CB OVC040 
     TEMPO 1618/1622 VRB19G26KT 4SM TSRA BKN025CB OVC050 
     FM162300 10009KT P6SM FEW025 SCT040 BKN090
       
TJMZ 161138Z 1612/1712 VRB03KT P6SM FEW060 
     FM161430 09008KT P6SM FEW030 
     FM161600 26008KT P6SM VCSH SCT025 BKN040 
     TEMPO 1616/1620 VRB14G24KT 3SM +TSRA BKN022CB OVC050 
     FM162300 06006KT P6SM SCT025 SCT040 BKN100 AMD NOT SKED
       
TJPS 161138Z 1612/1712 08010KT P6SM SCT030 BKN060 
     FM161400 13015KT P6SM FEW030 SCT070 
     FM161650 15017G24KT P6SM VCSH SCT025 SCT040 
     FM162300 09009KT P6SM FEW030 SCT070
       
TJSJ 161138Z 1612/1712 10010KT P6SM VCSH SCT025 BKN050 
     FM161450 08014KT P6SM FEW022 SCT050 SCT080 
     FM161630 07016G24KT P6SM VCSH SCT025 SCT040 
     TEMPO 1618/1622 VRB18G24KT 4SM SHRA BKN025 BKN040 
     FM162300 09010KT P6SM SCT030 BKN060 BKN100